createdAt,value
2018-12-20T00:00:07.518Z,95.46
2018-12-20T00:02:38.786Z,95.34
2018-12-20T00:05:10.573Z,95.29
2018-12-20T00:07:41.262Z,95.83
2018-12-20T00:10:12.084Z,95.74
2018-12-20T00:12:42.927Z,95.62
2018-12-20T00:17:54.718Z,95.77
2018-12-20T00:20:25.486Z,96.10
2018-12-20T00:22:56.247Z,96.88
2018-12-20T00:25:27.224Z,96.26
2018-12-20T00:27:58.050Z,96.00
2018-12-20T00:30:28.896Z,95.64
2018-12-20T00:32:59.603Z,95.92
2018-12-20T00:35:30.598Z,96.28
2018-12-20T00:38:01.539Z,96.29
2018-12-20T00:40:32.259Z,96.38
2018-12-20T00:43:03.111Z,96.35
2018-12-20T00:45:33.780Z,96.64
2018-12-20T00:48:04.477Z,96.77
2018-12-20T00:50:35.354Z,96.66
2018-12-20T00:53:06.094Z,96.32
2018-12-20T00:55:36.891Z,96.65
2018-12-20T00:58:07.651Z,96.57
2018-12-20T01:00:38.492Z,96.71
2018-12-20T01:03:09.595Z,96.82
2018-12-20T01:05:41.379Z,96.96
2018-12-20T01:08:12.201Z,96.74
2018-12-20T01:10:43.116Z,96.64
2018-12-20T01:13:13.934Z,96.72
2018-12-20T01:15:44.784Z,96.75
2018-12-20T01:18:15.512Z,96.64
2018-12-20T01:20:46.239Z,97.09
2018-12-20T01:23:17.093Z,96.70
2018-12-20T01:25:47.929Z,96.99
2018-12-20T01:28:18.871Z,97.00
2018-12-20T01:30:49.645Z,97.43
2018-12-20T01:33:20.517Z,97.59
2018-12-20T01:35:51.622Z,97.40
2018-12-20T01:38:22.464Z,97.28
2018-12-20T01:40:53.420Z,97.15
2018-12-20T01:43:24.331Z,97.37
2018-12-20T01:45:55.132Z,97.36
2018-12-20T01:48:25.958Z,97.28
2018-12-20T01:50:56.824Z,97.34
2018-12-20T01:53:27.524Z,97.87
2018-12-20T01:55:58.438Z,97.41
2018-12-20T01:58:29.305Z,97.50
2018-12-20T02:01:00.044Z,97.36
2018-12-20T02:03:30.734Z,97.52
2018-12-20T02:06:01.411Z,97.99
2018-12-20T02:08:32.219Z,97.90
2018-12-20T02:11:03.162Z,97.76
2018-12-20T02:13:33.984Z,98.41
2018-12-20T02:16:04.876Z,97.76
2018-12-20T02:18:35.781Z,97.82
2018-12-20T02:21:06.568Z,98.23
2018-12-20T02:23:37.489Z,97.84
2018-12-20T02:26:08.249Z,97.77
2018-12-20T02:28:39.082Z,98.09
2018-12-20T02:31:11.311Z,97.83
2018-12-20T02:33:42.082Z,98.12
2018-12-20T02:36:13.768Z,97.67
2018-12-20T02:38:44.477Z,98.25
2018-12-20T02:41:15.267Z,97.85
2018-12-20T02:43:46.157Z,97.56
2018-12-20T02:46:17.060Z,97.76
2018-12-20T02:48:47.736Z,98.47
2018-12-20T02:51:18.747Z,98.23
2018-12-20T02:53:49.563Z,98.45
2018-12-20T02:56:20.391Z,98.56
2018-12-20T02:58:51.337Z,98.21
2018-12-20T03:01:22.125Z,97.84
2018-12-20T03:03:52.823Z,97.78
2018-12-20T03:06:23.611Z,98.52
2018-12-20T03:08:54.482Z,98.84
2018-12-20T03:11:32.383Z,98.58
2018-12-20T03:14:03.164Z,98.62
2018-12-20T03:16:33.871Z,98.36
2018-12-20T03:19:05.027Z,98.64
2018-12-20T03:21:35.741Z,98.59
2018-12-20T03:24:06.562Z,98.68
2018-12-20T03:26:37.271Z,98.42
2018-12-20T03:29:08.135Z,98.77
2018-12-20T03:31:39.080Z,98.91
2018-12-20T03:34:10.605Z,98.44
2018-12-20T03:36:41.563Z,97.59
2018-12-20T03:39:12.592Z,97.91
2018-12-20T03:41:43.271Z,98.00
2018-12-20T03:44:14.060Z,98.22
2018-12-20T03:46:44.792Z,97.82
2018-12-20T03:49:15.534Z,98.01
2018-12-20T03:51:46.284Z,97.89
2018-12-20T03:54:16.960Z,98.07
2018-12-20T03:56:47.618Z,97.39
2018-12-20T03:59:18.380Z,97.38
2018-12-20T04:01:49.108Z,97.60
2018-12-20T04:04:20.055Z,97.45
2018-12-20T04:06:50.796Z,97.20
2018-12-20T04:09:21.819Z,96.55
2018-12-20T04:11:52.524Z,96.33
2018-12-20T04:14:23.247Z,95.54
2018-12-20T04:16:54.007Z,95.74
2018-12-20T04:19:24.760Z,96.30
2018-12-20T04:21:55.928Z,95.92
2018-12-20T04:24:26.705Z,95.54
2018-12-20T04:26:57.357Z,95.30
2018-12-20T04:29:28.172Z,95.57
2018-12-20T04:31:59.312Z,95.53
2018-12-20T04:34:30.164Z,96.33
2018-12-20T04:37:01.302Z,96.36
2018-12-20T04:39:32.405Z,96.03
2018-12-20T04:42:03.210Z,95.55
2018-12-20T04:44:34.118Z,95.43
2018-12-20T04:47:04.979Z,95.88
2018-12-20T04:49:35.729Z,95.72
2018-12-20T04:52:06.446Z,95.82
2018-12-20T04:54:37.204Z,95.37
2018-12-20T04:57:07.927Z,95.20
2018-12-20T04:59:38.923Z,95.48
2018-12-20T05:02:10.357Z,95.75
2018-12-20T05:04:41.168Z,96.07
2018-12-20T05:07:11.820Z,96.06
2018-12-20T05:09:42.541Z,96.04
2018-12-20T05:12:13.488Z,96.19
2018-12-20T05:14:44.327Z,96.71
2018-12-20T05:17:15.146Z,96.56
2018-12-20T05:19:46.265Z,96.09
2018-12-20T05:22:17.149Z,96.44
2018-12-20T05:24:48.023Z,96.55
2018-12-20T05:27:18.953Z,96.21
2018-12-20T05:29:49.928Z,96.31
2018-12-20T05:32:20.649Z,96.34
2018-12-20T05:34:51.818Z,96.16
2018-12-20T05:37:22.635Z,96.29
2018-12-20T05:39:53.557Z,96.18
2018-12-20T05:42:24.649Z,96.69
2018-12-20T05:44:55.779Z,96.50
2018-12-20T05:47:26.897Z,96.50
2018-12-20T05:49:57.946Z,96.55
2018-12-20T05:52:28.718Z,96.13
2018-12-20T05:54:59.525Z,96.45
2018-12-20T05:57:30.419Z,96.60
2018-12-20T06:00:01.211Z,96.53
2018-12-20T06:02:31.861Z,96.38
2018-12-20T06:05:02.742Z,96.48
2018-12-20T06:07:33.579Z,95.25
2018-12-20T06:10:04.441Z,95.60
2018-12-20T06:12:35.089Z,94.85
2018-12-20T06:15:07.381Z,94.47
2018-12-20T06:17:38.104Z,94.86
2018-12-20T06:20:08.935Z,94.01
2018-12-20T06:22:39.575Z,94.20
2018-12-20T06:25:10.821Z,93.94
2018-12-20T06:27:41.475Z,94.22
2018-12-20T06:30:12.502Z,94.11
2018-12-20T06:32:43.252Z,94.54
2018-12-20T06:35:13.928Z,93.98
2018-12-20T06:37:44.580Z,94.24
2018-12-20T06:40:16.447Z,94.35
2018-12-20T06:42:47.246Z,94.26
2018-12-20T06:45:17.941Z,93.98
2018-12-20T06:47:48.589Z,93.42
2018-12-20T06:50:19.263Z,93.61
2018-12-20T06:52:49.904Z,93.88
2018-12-20T06:55:20.572Z,93.70
2018-12-20T06:57:51.217Z,94.03
2018-12-20T07:00:21.881Z,93.89
2018-12-20T07:02:52.548Z,94.01
2018-12-20T07:05:23.205Z,94.15
2018-12-20T07:07:53.835Z,93.85
2018-12-20T07:10:24.503Z,94.23
2018-12-20T07:12:55.144Z,94.29
2018-12-20T07:15:25.808Z,93.83
2018-12-20T07:17:56.440Z,94.16
2018-12-20T07:20:27.112Z,93.41
2018-12-20T07:22:57.756Z,93.76
2018-12-20T07:25:28.493Z,93.38
2018-12-20T07:27:59.143Z,93.26
2018-12-20T07:30:29.837Z,93.95
2018-12-20T07:33:00.482Z,94.05
2018-12-20T07:35:31.156Z,94.12
2018-12-20T07:38:01.809Z,94.03
2018-12-20T07:40:32.471Z,94.41
2018-12-20T07:43:03.135Z,94.01
2018-12-20T07:45:33.881Z,93.77
2018-12-20T07:48:04.600Z,93.47
2018-12-20T07:50:35.263Z,94.02
2018-12-20T07:53:06.001Z,94.36
2018-12-20T07:55:36.668Z,93.80
2018-12-20T07:58:07.334Z,94.19
2018-12-20T08:00:38.162Z,94.37
2018-12-20T08:03:08.803Z,94.24
2018-12-20T08:05:39.480Z,94.71
2018-12-20T08:08:10.744Z,94.09
2018-12-20T08:10:41.497Z,94.23
2018-12-20T08:13:12.150Z,94.65
2018-12-20T08:15:42.800Z,94.35
2018-12-20T08:18:13.532Z,93.92
2018-12-20T08:20:44.191Z,93.82
2018-12-20T08:23:14.856Z,93.94
2018-12-20T08:25:45.602Z,94.11
2018-12-20T08:28:16.261Z,94.58
2018-12-20T08:30:47.056Z,93.98
2018-12-20T08:33:17.719Z,94.58
2018-12-20T08:35:48.394Z,93.77
2018-12-20T08:38:19.056Z,94.03
2018-12-20T08:40:49.808Z,93.31
2018-12-20T08:43:20.541Z,93.04
2018-12-20T08:45:51.277Z,93.41
2018-12-20T08:48:21.932Z,93.99
2018-12-20T08:50:52.611Z,93.87
2018-12-20T08:53:23.260Z,93.83
2018-12-20T08:55:53.977Z,93.82
2018-12-20T08:58:24.629Z,94.13
2018-12-20T09:00:55.362Z,93.09
2018-12-20T09:03:26.019Z,93.59
2018-12-20T09:05:56.687Z,93.25
2018-12-20T09:08:27.417Z,93.67
2018-12-20T09:10:59.117Z,92.73
2018-12-20T09:13:29.770Z,92.90
2018-12-20T09:16:00.444Z,93.93
2018-12-20T09:18:31.178Z,93.86
2018-12-20T09:21:01.865Z,93.60
2018-12-20T09:23:32.515Z,92.97
2018-12-20T09:26:03.222Z,92.36
2018-12-20T09:28:34.892Z,91.74
2018-12-20T09:31:05.551Z,91.52
2018-12-20T09:33:36.187Z,91.99
2018-12-20T09:36:06.955Z,92.19
2018-12-20T09:38:37.584Z,91.20
2018-12-20T09:41:08.255Z,90.99
2018-12-20T09:43:38.885Z,91.51
2018-12-20T09:46:10.933Z,91.62
2018-12-20T09:48:41.656Z,90.86
2018-12-20T09:51:12.391Z,91.11
2018-12-20T09:53:43.031Z,90.74
2018-12-20T09:56:13.857Z,90.95
2018-12-20T09:58:44.500Z,91.52
2018-12-20T10:01:15.167Z,91.17
2018-12-20T10:03:45.800Z,91.18
2018-12-20T10:06:16.464Z,90.57
2018-12-20T10:08:47.180Z,90.94
2018-12-20T10:11:17.904Z,91.20
2018-12-20T10:13:48.544Z,90.79
2018-12-20T10:16:19.218Z,91.16
2018-12-20T10:18:49.936Z,90.78
2018-12-20T10:21:21.940Z,90.39
2018-12-20T10:23:52.713Z,89.83
2018-12-20T10:26:23.447Z,89.61
2018-12-20T10:28:54.084Z,90.55
2018-12-20T10:31:24.728Z,89.93
2018-12-20T10:33:55.379Z,90.36
2018-12-20T10:36:26.128Z,90.49
2018-12-20T10:38:56.764Z,89.92
2018-12-20T10:41:27.408Z,89.93
2018-12-20T10:43:58.046Z,89.56
2018-12-20T10:46:28.720Z,88.70
2018-12-20T10:48:59.381Z,89.13
2018-12-20T10:51:30.041Z,89.30
2018-12-20T10:54:00.677Z,88.06
2018-12-20T10:56:31.412Z,88.72
2018-12-20T10:59:02.060Z,88.69
2018-12-20T11:01:38.013Z,87.08
2018-12-20T11:04:13.945Z,87.92
2018-12-20T11:06:49.817Z,88.14
2018-12-20T11:09:25.708Z,87.67
2018-12-20T11:12:01.583Z,87.03
2018-12-20T11:14:32.223Z,87.16
2018-12-20T11:17:02.885Z,86.55
2018-12-20T11:19:33.531Z,86.18
2018-12-20T11:22:04.189Z,86.22
2018-12-20T11:24:34.908Z,85.42
2018-12-20T11:27:05.643Z,84.37
2018-12-20T11:29:36.292Z,84.80
2018-12-20T11:32:07.024Z,85.05
2018-12-20T11:34:37.667Z,83.82
2018-12-20T11:37:08.412Z,84.49
2018-12-20T11:39:39.059Z,83.98
2018-12-20T11:42:10.984Z,82.74
2018-12-20T11:44:41.779Z,84.11
2018-12-20T11:47:17.976Z,83.56
2018-12-20T11:49:48.707Z,83.71
2018-12-20T11:52:19.411Z,84.18
2018-12-20T11:54:50.075Z,83.96
2018-12-20T11:57:20.823Z,83.82
2018-12-20T11:59:51.459Z,84.43
2018-12-20T12:02:24.644Z,84.52
2018-12-20T12:04:55.037Z,84.67
2018-12-20T12:07:25.672Z,84.00
2018-12-20T12:09:56.311Z,82.97
2018-12-20T12:12:27.195Z,83.61
2018-12-20T12:14:57.816Z,83.38
2018-12-20T12:17:28.475Z,82.71
2018-12-20T12:19:59.124Z,83.27
2018-12-20T12:22:29.788Z,83.49
2018-12-20T12:25:00.426Z,81.24
2018-12-20T12:27:31.082Z,82.05
2018-12-20T12:30:01.792Z,82.65
2018-12-20T12:32:32.532Z,82.54
2018-12-20T12:35:03.327Z,83.13
2018-12-20T12:37:35.083Z,82.71
2018-12-20T12:40:07.171Z,82.69
2018-12-20T12:42:38.063Z,82.07
2018-12-20T12:45:09.043Z,82.52
2018-12-20T12:48:10.407Z,82.60
2018-12-20T12:50:41.218Z,82.95
2018-12-20T12:53:11.927Z,83.63
2018-12-20T12:55:42.648Z,84.47
2018-12-20T12:58:13.369Z,84.56
2018-12-20T13:00:44.077Z,86.52
2018-12-20T13:03:14.817Z,85.75
2018-12-20T13:05:45.600Z,86.12
2018-12-20T13:08:16.571Z,86.34
2018-12-20T13:10:47.313Z,87.52
2018-12-20T13:13:18.246Z,87.05
2018-12-20T13:15:49.102Z,87.14
2018-12-20T13:18:19.946Z,87.12
2018-12-20T13:20:50.699Z,87.77
2018-12-20T13:23:21.468Z,87.38
2018-12-20T13:25:52.208Z,87.53
2018-12-20T13:28:22.969Z,87.29
2018-12-20T13:30:53.708Z,87.69
2018-12-20T13:33:24.553Z,86.70
2018-12-20T13:35:55.309Z,86.98
2018-12-20T13:38:26.076Z,87.62
2018-12-20T13:40:56.815Z,86.95
2018-12-20T13:43:27.590Z,87.12
2018-12-20T13:45:58.327Z,86.70
2018-12-20T13:48:29.092Z,86.89
2018-12-20T13:50:59.867Z,86.90
2018-12-20T13:53:30.628Z,86.99
2018-12-20T13:56:01.398Z,87.24
2018-12-20T13:58:32.148Z,87.54
2018-12-20T14:01:02.905Z,87.54
2018-12-20T14:03:33.652Z,87.49
2018-12-20T14:06:04.425Z,87.95
2018-12-20T14:08:35.436Z,87.53
2018-12-20T14:11:06.263Z,87.92
2018-12-20T14:13:37.009Z,87.83
2018-12-20T14:16:07.843Z,87.47
2018-12-20T14:18:38.648Z,88.08
2018-12-20T14:21:09.336Z,87.71
2018-12-20T14:23:40.146Z,88.23
2018-12-20T14:26:10.882Z,87.43
2018-12-20T14:28:41.625Z,87.98
2018-12-20T14:31:12.392Z,87.93
2018-12-20T14:33:43.159Z,87.71
2018-12-20T14:36:14.007Z,88.55
2018-12-20T14:38:44.858Z,87.59
2018-12-20T14:41:15.933Z,87.81
2018-12-20T14:43:46.785Z,88.03
2018-12-20T14:46:17.656Z,88.23
2018-12-20T14:48:48.404Z,88.22
2018-12-20T14:51:19.150Z,87.76
2018-12-20T14:53:49.928Z,88.29
2018-12-20T14:56:20.767Z,88.37
2018-12-20T14:58:51.524Z,88.06
2018-12-20T15:01:22.259Z,88.13
2018-12-20T15:03:53.006Z,87.75
2018-12-20T15:06:23.740Z,88.55
2018-12-20T15:08:54.506Z,89.10
2018-12-20T15:11:26.364Z,88.69
2018-12-20T15:13:57.079Z,88.65
2018-12-20T15:16:27.832Z,88.19
2018-12-20T15:18:58.585Z,88.69
2018-12-20T15:21:29.354Z,88.45
2018-12-20T15:24:00.351Z,88.89
2018-12-20T15:26:31.203Z,88.65
2018-12-20T15:29:02.046Z,89.44
2018-12-20T15:31:32.784Z,88.42
2018-12-20T15:34:03.572Z,88.73
2018-12-20T15:36:35.345Z,89.01
2018-12-20T15:39:08.005Z,88.58
2018-12-20T15:41:38.735Z,88.67
2018-12-20T15:44:09.453Z,89.20
2018-12-20T15:46:40.185Z,89.00
2018-12-20T15:49:11.122Z,89.02
2018-12-20T15:51:41.968Z,89.35
2018-12-20T15:54:12.720Z,89.71
2018-12-20T15:56:43.454Z,89.38
2018-12-20T15:59:14.182Z,89.50
2018-12-20T16:01:44.944Z,89.13
2018-12-20T16:04:15.968Z,87.55
2018-12-20T16:06:46.707Z,88.16
2018-12-20T16:09:17.744Z,87.82
2018-12-20T16:11:48.476Z,88.10
2018-12-20T16:14:19.276Z,87.85
2018-12-20T16:16:50.033Z,87.70
2018-12-20T16:19:20.804Z,87.78
2018-12-20T16:21:51.564Z,88.15
2018-12-20T16:24:22.348Z,87.77
2018-12-20T16:26:53.080Z,87.08
2018-12-20T16:29:24.012Z,88.02
2018-12-20T16:31:54.865Z,87.88
2018-12-20T16:34:25.807Z,87.79
2018-12-20T16:36:56.544Z,88.00
2018-12-20T16:39:27.357Z,88.03
2018-12-20T16:41:58.077Z,87.97
2018-12-20T16:44:29.180Z,88.04
2018-12-20T16:46:59.909Z,87.91
2018-12-20T16:49:30.673Z,88.29
2018-12-20T16:52:01.408Z,87.76
2018-12-20T16:54:32.147Z,87.57
2018-12-20T16:57:02.884Z,86.76
2018-12-20T16:59:33.665Z,86.44
2018-12-20T17:02:04.405Z,86.83
2018-12-20T17:04:35.155Z,86.20
2018-12-20T17:07:06.014Z,86.22
2018-12-20T17:09:36.837Z,86.66
2018-12-20T17:12:07.667Z,86.15
2018-12-20T17:14:38.430Z,86.35
2018-12-20T17:17:09.197Z,86.20
2018-12-20T17:19:39.967Z,86.10
2018-12-20T17:22:11.347Z,85.69
2018-12-20T17:24:42.197Z,85.54
2018-12-20T17:27:13.018Z,85.42
2018-12-20T17:29:43.807Z,85.74
2018-12-20T17:32:14.567Z,85.43
2018-12-20T17:34:45.334Z,85.79
2018-12-20T17:37:16.239Z,85.65
2018-12-20T17:39:47.325Z,85.03
2018-12-20T17:42:18.099Z,85.30
2018-12-20T17:44:48.864Z,85.43
2018-12-20T17:47:19.652Z,84.56
2018-12-20T17:49:50.415Z,85.27
2018-12-20T17:52:21.179Z,85.09
2018-12-20T17:54:51.965Z,85.00
2018-12-20T17:57:23.698Z,84.80
2018-12-20T17:59:54.524Z,84.54
2018-12-20T18:02:25.271Z,84.64
2018-12-20T18:04:56.041Z,85.14
2018-12-20T18:07:26.773Z,84.88
2018-12-20T18:09:57.536Z,84.96
2018-12-20T18:12:28.281Z,84.43
2018-12-20T18:14:59.235Z,85.72
2018-12-20T18:17:30.069Z,85.52
2018-12-20T18:20:00.840Z,85.67
2018-12-20T18:22:31.601Z,85.60
2018-12-20T18:25:02.373Z,85.19
2018-12-20T18:27:33.157Z,85.55
2018-12-20T18:30:04.972Z,85.65
2018-12-20T18:32:35.804Z,85.42
2018-12-20T18:35:07.496Z,85.67
2018-12-20T18:37:38.243Z,85.16
2018-12-20T18:40:10.091Z,85.18
2018-12-20T18:42:40.845Z,85.27
2018-12-20T18:45:11.780Z,84.66
2018-12-20T18:47:42.612Z,85.77
2018-12-20T18:50:13.488Z,85.76
2018-12-20T18:52:44.292Z,85.47
2018-12-20T18:55:15.225Z,85.47
2018-12-20T18:57:45.955Z,85.04
2018-12-20T19:00:16.842Z,85.48
2018-12-20T19:02:47.613Z,84.98
2018-12-20T19:05:18.543Z,85.09
2018-12-20T19:07:49.789Z,85.33
2018-12-20T19:10:20.584Z,86.32
2018-12-20T19:12:51.447Z,85.83
2018-12-20T19:15:22.238Z,85.97
2018-12-20T19:17:53.288Z,86.29
2018-12-20T19:20:23.985Z,85.85
2018-12-20T19:22:54.681Z,86.10
2018-12-20T19:25:26.569Z,86.25
2018-12-20T19:27:57.308Z,85.84
2018-12-20T19:30:28.163Z,85.60
2018-12-20T19:32:59.140Z,85.32
2018-12-20T19:38:10.845Z,85.05
2018-12-20T19:40:41.774Z,85.18
2018-12-20T19:43:12.732Z,85.54
2018-12-20T19:45:46.120Z,84.53
2018-12-20T19:48:19.868Z,84.77
2018-12-20T19:50:50.676Z,85.29
2018-12-20T19:53:21.465Z,85.33
2018-12-20T19:55:52.262Z,85.63
2018-12-20T19:58:23.191Z,85.56
2018-12-20T20:00:54.083Z,85.52
2018-12-20T20:03:24.860Z,85.53
2018-12-20T20:05:55.707Z,85.97
2018-12-20T20:08:26.556Z,85.76
2018-12-20T20:10:57.432Z,85.56
2018-12-20T20:13:30.923Z,85.36
2018-12-20T20:16:01.000Z,86.06
2018-12-20T20:18:31.901Z,85.32
2018-12-20T20:21:02.713Z,85.71
2018-12-20T20:23:33.539Z,85.64
2018-12-20T20:26:04.501Z,85.60
2018-12-20T20:28:35.345Z,85.48
2018-12-20T20:31:06.235Z,86.20
2018-12-20T20:33:37.058Z,86.34
2018-12-20T20:36:07.824Z,86.02
2018-12-20T20:38:38.626Z,86.46
2018-12-20T20:41:10.604Z,86.39
2018-12-20T20:43:41.316Z,85.99
2018-12-20T20:46:12.137Z,86.21
2018-12-20T20:48:43.088Z,85.79
2018-12-20T20:51:13.836Z,85.62
2018-12-20T20:53:44.549Z,85.59
2018-12-20T20:56:15.304Z,85.43
2018-12-20T20:58:46.024Z,85.21
2018-12-20T21:01:16.860Z,85.29
2018-12-20T21:03:47.572Z,85.47
2018-12-20T21:06:18.620Z,85.63
2018-12-20T21:08:49.648Z,85.40
2018-12-20T21:11:20.368Z,85.71
2018-12-20T21:13:51.084Z,85.26
2018-12-20T21:16:22.167Z,85.52
2018-12-20T21:18:52.880Z,85.18
2018-12-20T21:21:23.624Z,85.20
2018-12-20T21:23:54.332Z,85.00
2018-12-20T21:26:25.065Z,84.94
2018-12-20T21:28:55.767Z,85.36
2018-12-20T21:31:26.527Z,85.17
2018-12-20T21:33:57.224Z,85.38
2018-12-20T21:36:27.993Z,85.90
2018-12-20T21:38:58.744Z,85.17
2018-12-20T21:41:29.469Z,85.36
2018-12-20T21:44:00.252Z,85.57
2018-12-20T21:46:31.063Z,85.40
2018-12-20T21:49:01.940Z,85.50
2018-12-20T21:51:32.780Z,85.08
2018-12-20T21:54:03.579Z,85.27
2018-12-20T21:56:34.316Z,85.20
2018-12-20T21:59:05.026Z,85.07
2018-12-20T22:01:35.755Z,84.56
2018-12-20T22:04:06.472Z,84.88
2018-12-20T22:06:37.207Z,85.20
2018-12-20T22:09:08.210Z,84.91
2018-12-20T22:11:39.018Z,84.84
2018-12-20T22:14:10.739Z,85.25
2018-12-20T22:16:41.744Z,85.85
2018-12-20T22:19:12.458Z,85.30
2018-12-20T22:21:43.179Z,84.78
2018-12-20T22:24:13.983Z,85.19
2018-12-20T22:26:44.833Z,85.05
2018-12-20T22:29:15.590Z,85.48
2018-12-20T22:31:46.295Z,85.77
2018-12-20T22:34:17.025Z,86.11
2018-12-20T22:36:48.021Z,85.49
2018-12-20T22:39:18.748Z,85.39
2018-12-20T22:41:49.552Z,84.99
2018-12-20T22:44:20.347Z,85.34
2018-12-20T22:46:51.060Z,85.25
2018-12-20T22:49:21.780Z,85.24
2018-12-20T22:51:52.541Z,85.29
2018-12-20T22:54:23.243Z,85.61
2018-12-20T22:56:54.073Z,85.86
2018-12-20T22:59:24.853Z,85.42
2018-12-20T23:01:55.569Z,85.11
2018-12-20T23:04:26.267Z,85.29
2018-12-20T23:06:57.100Z,85.30
2018-12-20T23:09:27.807Z,85.46
2018-12-20T23:11:58.548Z,85.15
2018-12-20T23:14:29.259Z,85.05
2018-12-20T23:17:00.093Z,85.34
2018-12-20T23:19:30.880Z,85.73
2018-12-20T23:22:01.646Z,85.72
2018-12-20T23:24:32.356Z,85.67
2018-12-20T23:27:03.077Z,85.89
2018-12-20T23:29:33.789Z,85.43
2018-12-20T23:32:04.591Z,85.73
2018-12-20T23:34:35.420Z,85.63
2018-12-20T23:37:06.150Z,85.17
2018-12-20T23:39:36.860Z,84.88
2018-12-20T23:42:07.683Z,84.87
2018-12-20T23:44:38.407Z,85.00
2018-12-20T23:47:10.343Z,84.20
2018-12-20T23:49:41.060Z,84.47
2018-12-20T23:52:11.796Z,84.58
2018-12-20T23:54:42.576Z,84.36
2018-12-20T23:57:13.304Z,84.30
2018-12-20T23:59:44.098Z,84.17
